createdAt,value
2023-05-05T00:02:27.447Z,50.51
2023-05-05T00:04:55.533Z,51.07
2023-05-05T00:07:23.230Z,50.02
2023-05-05T00:09:51.051Z,49.87
2023-05-05T00:12:18.771Z,50.64
2023-05-05T00:14:46.530Z,50.06
2023-05-05T00:17:14.330Z,49.98
2023-05-05T00:19:42.156Z,50.02
2023-05-05T00:22:12.494Z,49.90
2023-05-05T00:24:40.334Z,49.91
2023-05-05T00:27:08.076Z,50.19
2023-05-05T00:29:36.456Z,50.97
2023-05-05T00:32:04.364Z,50.70
2023-05-05T00:34:32.156Z,50.51
2023-05-05T00:37:00.820Z,50.51
2023-05-05T00:39:28.553Z,50.69
2023-05-05T00:41:56.433Z,51.13
2023-05-05T00:44:37.390Z,51.63
2023-05-05T00:47:05.712Z,51.14
2023-05-05T00:49:35.500Z,51.56
2023-05-05T00:52:04.306Z,52.09
2023-05-05T00:54:32.212Z,51.99
2023-05-05T00:57:03.187Z,51.53
2023-05-05T00:59:31.636Z,51.56
2023-05-05T01:01:59.959Z,51.40
2023-05-05T01:04:28.098Z,51.62
2023-05-05T01:07:02.220Z,52.07
2023-05-05T01:09:42.549Z,51.99
2023-05-05T01:12:19.513Z,51.73
2023-05-05T01:15:02.953Z,51.75
2023-05-05T01:17:43.213Z,51.90
2023-05-05T01:20:18.990Z,51.91
2023-05-05T01:22:47.854Z,51.74
2023-05-05T01:25:41.731Z,51.80
2023-05-05T01:28:28.683Z,52.06
2023-05-05T01:31:05.916Z,52.36
2023-05-05T01:33:41.005Z,52.10
2023-05-05T01:36:13.732Z,51.82
2023-05-05T01:38:44.504Z,52.22
2023-05-05T01:41:17.783Z,52.00
2023-05-05T01:43:50.021Z,52.21
2023-05-05T01:46:19.394Z,52.74
2023-05-05T01:48:48.640Z,52.07
2023-05-05T01:51:18.094Z,52.30
2023-05-05T01:53:47.421Z,52.43
2023-05-05T01:56:16.511Z,52.57
2023-05-05T01:58:45.413Z,53.07
2023-05-05T02:01:13.861Z,52.41
2023-05-05T02:03:42.445Z,52.20
2023-05-05T02:06:10.489Z,52.23
2023-05-05T02:08:39.784Z,53.61
2023-05-05T02:11:09.695Z,53.61
2023-05-05T02:13:39.623Z,54.19
2023-05-05T02:16:07.686Z,53.06
2023-05-05T02:18:36.246Z,53.52
2023-05-05T02:21:04.365Z,53.33
2023-05-05T02:23:33.460Z,54.91
2023-05-05T02:26:06.664Z,54.40
2023-05-05T02:28:42.392Z,54.92
2023-05-05T02:31:10.957Z,54.66
2023-05-05T02:33:39.673Z,54.93
2023-05-05T02:36:13.016Z,53.65
2023-05-05T02:38:54.856Z,53.83
2023-05-05T02:41:25.725Z,54.14
2023-05-05T02:43:55.462Z,52.67
2023-05-05T02:46:23.978Z,52.62
2023-05-05T02:48:52.682Z,51.88
2023-05-05T02:51:20.658Z,50.58
2023-05-05T02:53:48.612Z,48.22
2023-05-05T02:56:39.010Z,46.73
2023-05-05T02:59:16.440Z,44.26
2023-05-05T03:01:57.575Z,43.89
2023-05-05T03:05:01.712Z,44.73
2023-05-05T03:07:48.120Z,45.22
2023-05-05T03:10:18.938Z,45.61
2023-05-05T03:12:54.019Z,45.61
2023-05-05T03:15:41.608Z,46.46
2023-05-05T03:18:13.069Z,47.13
2023-05-05T03:20:44.528Z,46.85
2023-05-05T03:23:15.106Z,46.62
2023-05-05T03:25:46.791Z,47.00
2023-05-05T03:28:22.585Z,46.21
2023-05-05T03:30:51.022Z,45.88
2023-05-05T03:33:19.929Z,44.73
2023-05-05T03:35:48.065Z,41.50
2023-05-05T03:38:15.877Z,38.31
2023-05-05T03:40:45.006Z,36.80
2023-05-05T03:43:17.497Z,36.70
2023-05-05T03:45:45.366Z,35.20
2023-05-05T03:48:13.679Z,36.02
2023-05-05T03:50:45.253Z,35.86
2023-05-05T03:53:14.462Z,36.08
2023-05-05T03:55:43.423Z,35.43
2023-05-05T03:58:12.267Z,34.52
2023-05-05T04:00:40.042Z,34.05
2023-05-05T04:03:08.036Z,32.84
2023-05-05T04:05:36.130Z,32.25
2023-05-05T04:08:04.146Z,32.50
2023-05-05T04:10:32.331Z,31.18
2023-05-05T04:13:01.425Z,32.08
2023-05-05T04:15:31.152Z,30.19
2023-05-05T04:17:59.038Z,30.33
2023-05-05T04:20:27.572Z,29.85
2023-05-05T04:23:00.389Z,30.13
2023-05-05T04:25:30.525Z,29.33
2023-05-05T04:28:02.534Z,29.57
2023-05-05T04:30:31.730Z,30.71
2023-05-05T04:33:03.003Z,31.38
2023-05-05T04:35:31.465Z,32.17
2023-05-05T04:38:02.061Z,32.88
2023-05-05T04:40:31.456Z,33.24
2023-05-05T04:42:59.959Z,32.96
2023-05-05T04:45:27.942Z,31.90
2023-05-05T04:47:56.058Z,32.45
2023-05-05T04:50:23.853Z,33.56
2023-05-05T04:52:52.767Z,34.03
2023-05-05T04:55:21.432Z,34.90
2023-05-05T04:57:49.280Z,35.04
2023-05-05T05:00:17.297Z,34.28
2023-05-05T05:02:45.071Z,34.34
2023-05-05T05:05:12.883Z,33.90
2023-05-05T05:07:40.966Z,33.63
2023-05-05T05:10:09.524Z,33.89
2023-05-05T05:12:37.649Z,33.78
2023-05-05T05:15:06.304Z,32.68
2023-05-05T05:17:36.274Z,34.11
2023-05-05T05:20:05.145Z,34.50
2023-05-05T05:22:35.045Z,34.42
2023-05-05T05:25:03.904Z,34.95
2023-05-05T05:27:31.798Z,33.97
2023-05-05T05:29:59.630Z,34.40
2023-05-05T05:32:28.241Z,34.31
2023-05-05T05:34:56.473Z,33.84
2023-05-05T05:37:24.376Z,34.82
2023-05-05T05:39:55.656Z,35.15
2023-05-05T05:42:24.957Z,35.10
2023-05-05T05:44:53.603Z,36.55
2023-05-05T05:47:21.463Z,37.72
2023-05-05T05:49:50.580Z,39.08
2023-05-05T05:52:18.362Z,40.96
2023-05-05T05:54:46.374Z,40.32
2023-05-05T05:57:14.225Z,40.39
2023-05-05T05:59:42.254Z,41.01
2023-05-05T06:02:10.573Z,40.52
2023-05-05T06:04:38.673Z,41.05
2023-05-05T06:07:06.525Z,40.60
2023-05-05T06:09:34.492Z,41.48
2023-05-05T06:12:03.987Z,42.26
2023-05-05T06:14:32.592Z,42.78
2023-05-05T06:17:03.197Z,43.48
2023-05-05T06:19:33.300Z,43.36
2023-05-05T06:22:01.295Z,43.04
2023-05-05T06:24:29.339Z,42.64
2023-05-05T06:26:59.421Z,43.12
2023-05-05T06:29:27.222Z,43.88
2023-05-05T06:31:55.305Z,44.83
2023-05-05T06:34:23.088Z,45.13
2023-05-05T06:36:50.948Z,44.88
2023-05-05T06:39:18.784Z,45.99
2023-05-05T06:41:46.540Z,46.15
2023-05-05T06:44:14.364Z,46.97
2023-05-05T06:46:43.933Z,45.88
2023-05-05T06:49:11.846Z,47.27
2023-05-05T06:51:41.049Z,46.45
2023-05-05T06:54:29.565Z,46.06
2023-05-05T06:56:59.408Z,46.34
2023-05-05T06:59:27.513Z,46.58
2023-05-05T07:01:55.202Z,46.97
2023-05-05T07:04:23.168Z,46.83
2023-05-05T07:06:50.924Z,46.63
2023-05-05T07:09:18.809Z,44.98
2023-05-05T07:11:46.781Z,43.59
2023-05-05T07:14:14.599Z,42.59
2023-05-05T07:16:42.445Z,42.10
2023-05-05T07:19:10.235Z,41.91
2023-05-05T07:21:39.781Z,41.90
2023-05-05T07:24:07.767Z,41.71
2023-05-05T07:26:35.760Z,41.91
2023-05-05T07:29:04.670Z,42.78
2023-05-05T07:31:32.559Z,44.38
2023-05-05T07:34:00.757Z,43.54
2023-05-05T07:36:28.676Z,44.50
2023-05-05T07:38:56.646Z,43.34
2023-05-05T07:41:24.446Z,43.98
2023-05-05T07:43:52.245Z,44.35
2023-05-05T07:46:20.134Z,44.80
2023-05-05T07:48:48.009Z,44.11
2023-05-05T07:51:16.284Z,42.85
2023-05-05T07:53:44.135Z,43.11
2023-05-05T07:56:11.905Z,43.07
2023-05-05T07:58:39.692Z,43.81
2023-05-05T08:01:10.954Z,45.53
2023-05-05T08:03:38.950Z,44.61
2023-05-05T08:06:09.585Z,44.14
2023-05-05T08:08:38.018Z,44.92
2023-05-05T08:11:06.725Z,44.80
2023-05-05T08:13:34.893Z,45.79
2023-05-05T08:16:02.868Z,47.10
2023-05-05T08:18:30.733Z,47.54
2023-05-05T08:20:58.476Z,47.59
2023-05-05T08:23:26.219Z,48.13
2023-05-05T08:25:54.023Z,48.57
2023-05-05T08:28:23.110Z,48.73
2023-05-05T08:30:51.040Z,51.06
2023-05-05T08:33:18.847Z,52.64
2023-05-05T08:35:46.756Z,53.16
2023-05-05T08:38:14.668Z,54.48
2023-05-05T08:40:42.857Z,54.98
2023-05-05T08:43:11.432Z,56.02
2023-05-05T08:45:42.502Z,58.26
2023-05-05T08:48:10.395Z,57.63
2023-05-05T08:50:40.145Z,58.88
2023-05-05T08:53:15.543Z,56.98
2023-05-05T08:55:53.415Z,58.62
2023-05-05T08:58:23.400Z,57.59
2023-05-05T09:00:52.019Z,58.70
2023-05-05T09:03:20.280Z,56.94
2023-05-05T09:05:48.241Z,57.89
2023-05-05T09:08:16.441Z,58.79
2023-05-05T09:10:44.925Z,57.76
2023-05-05T09:13:13.342Z,58.21
2023-05-05T09:15:42.267Z,55.82
2023-05-05T09:18:12.182Z,55.56
2023-05-05T09:20:41.350Z,55.64
2023-05-05T09:23:12.758Z,56.00
2023-05-05T09:25:41.709Z,56.18
2023-05-05T09:28:15.149Z,56.08
2023-05-05T09:30:47.094Z,56.52
2023-05-05T09:33:14.934Z,56.35
2023-05-05T09:35:51.191Z,57.07
2023-05-05T09:38:20.253Z,57.17
2023-05-05T09:40:49.775Z,58.93
2023-05-05T09:43:18.932Z,58.15
2023-05-05T09:45:48.901Z,58.88
2023-05-05T09:48:31.260Z,56.60
2023-05-05T09:50:59.701Z,57.66
2023-05-05T09:53:28.221Z,55.27
2023-05-05T09:55:57.405Z,54.41
2023-05-05T09:58:30.740Z,54.27
2023-05-05T10:00:59.452Z,53.16
2023-05-05T10:03:27.314Z,52.32
2023-05-05T10:05:57.227Z,52.96
2023-05-05T10:08:26.458Z,51.97
2023-05-05T10:11:00.645Z,51.73
2023-05-05T10:13:28.928Z,50.03
2023-05-05T10:15:58.174Z,50.86
2023-05-05T10:18:27.599Z,49.97
2023-05-05T10:20:58.648Z,49.41
2023-05-05T10:24:06.192Z,48.52
2023-05-05T10:26:35.234Z,47.79
2023-05-05T10:29:03.288Z,48.46
2023-05-05T10:31:47.256Z,46.63
2023-05-05T10:34:29.829Z,47.56
2023-05-05T10:36:57.814Z,47.14
2023-05-05T10:39:26.898Z,48.14
2023-05-05T10:41:54.775Z,48.42
2023-05-05T10:44:23.152Z,49.01
2023-05-05T10:46:51.400Z,48.13
2023-05-05T10:49:37.878Z,47.55
2023-05-05T10:52:28.692Z,48.10
2023-05-05T10:55:12.261Z,47.88
2023-05-05T10:57:42.088Z,47.70
2023-05-05T11:00:10.991Z,47.80
2023-05-05T11:02:38.972Z,48.54
2023-05-05T11:05:25.944Z,48.68
2023-05-05T11:07:53.676Z,48.55
2023-05-05T11:10:23.190Z,47.76
2023-05-05T11:13:03.251Z,48.11
2023-05-05T11:15:31.304Z,47.42
2023-05-05T11:18:07.356Z,46.54
2023-05-05T11:20:43.269Z,46.60
2023-05-05T11:23:13.358Z,46.10
2023-05-05T11:25:45.446Z,45.45
2023-05-05T11:28:15.052Z,45.63
2023-05-05T11:30:55.046Z,46.40
2023-05-05T11:33:39.919Z,44.79
2023-05-05T11:36:09.543Z,44.98
2023-05-05T11:38:52.432Z,45.95
2023-05-05T11:41:33.595Z,46.59
2023-05-05T11:44:30.859Z,46.83
2023-05-05T11:47:02.307Z,46.82
2023-05-05T11:49:47.757Z,47.99
2023-05-05T11:52:15.655Z,47.63
2023-05-05T11:54:49.328Z,47.02
2023-05-05T11:57:21.326Z,47.10
2023-05-05T12:00:07.733Z,46.59
2023-05-05T12:02:41.999Z,46.71
2023-05-05T12:05:09.922Z,45.86
2023-05-05T12:07:37.805Z,45.29
2023-05-05T12:10:06.306Z,44.51
2023-05-05T12:12:38.730Z,44.01
2023-05-05T12:15:08.302Z,45.24
2023-05-05T12:17:41.055Z,43.47
2023-05-05T12:20:10.586Z,44.85
2023-05-05T12:22:38.882Z,44.35
2023-05-05T12:25:08.135Z,45.23
2023-05-05T12:27:36.297Z,45.04
2023-05-05T12:30:18.125Z,46.33
2023-05-05T12:32:46.204Z,46.88
2023-05-05T12:35:14.585Z,46.11
2023-05-05T12:37:43.621Z,46.65
2023-05-05T12:40:45.188Z,45.94
2023-05-05T12:43:29.485Z,45.53
2023-05-05T12:46:12.499Z,45.00
2023-05-05T12:48:52.850Z,45.05
2023-05-05T12:51:27.354Z,45.02
2023-05-05T12:54:09.994Z,44.18
2023-05-05T12:56:40.708Z,44.20
2023-05-05T12:59:23.951Z,42.69
2023-05-05T13:01:56.341Z,42.95
2023-05-05T13:04:27.876Z,43.22
2023-05-05T13:07:13.027Z,42.70
2023-05-05T13:09:42.558Z,41.78
2023-05-05T13:12:12.965Z,41.59
2023-05-05T13:14:42.147Z,41.33
2023-05-05T13:17:11.566Z,41.83
2023-05-05T13:19:46.550Z,43.26
2023-05-05T13:22:16.177Z,41.96
2023-05-05T13:24:52.174Z,43.31
2023-05-05T13:27:24.485Z,41.37
2023-05-05T13:29:52.397Z,41.34
2023-05-05T13:32:21.516Z,40.05
2023-05-05T13:35:00.838Z,40.22
2023-05-05T13:37:54.861Z,40.03
2023-05-05T13:40:25.212Z,40.05
2023-05-05T13:42:53.855Z,40.89
2023-05-05T13:45:21.822Z,39.74
2023-05-05T13:47:49.713Z,39.47
2023-05-05T13:50:18.458Z,39.80
2023-05-05T13:52:46.377Z,39.99
2023-05-05T13:55:14.186Z,40.55
2023-05-05T13:57:42.456Z,40.25
2023-05-05T14:00:10.744Z,40.90
2023-05-05T14:02:38.601Z,41.51
2023-05-05T14:05:07.530Z,40.91
2023-05-05T14:07:35.484Z,40.62
2023-05-05T14:10:03.341Z,40.81
2023-05-05T14:12:32.556Z,39.63
2023-05-05T14:15:02.718Z,39.00
2023-05-05T14:17:38.110Z,39.59
2023-05-05T14:20:09.543Z,40.45
2023-05-05T14:22:37.569Z,38.77
2023-05-05T14:25:06.408Z,39.40
2023-05-05T14:27:34.508Z,39.93
2023-05-05T14:30:03.524Z,38.82
2023-05-05T14:32:33.225Z,38.45
2023-05-05T14:35:01.114Z,37.83
2023-05-05T14:37:28.999Z,38.28
2023-05-05T14:39:56.839Z,39.73
2023-05-05T14:42:25.420Z,39.48
2023-05-05T14:44:53.693Z,40.27
2023-05-05T14:47:21.545Z,41.05
2023-05-05T14:49:49.547Z,40.08
2023-05-05T14:52:17.409Z,39.82
2023-05-05T14:54:45.218Z,40.24
2023-05-05T14:57:13.073Z,39.71
2023-05-05T14:59:40.956Z,39.82
2023-05-05T15:02:08.866Z,39.30
2023-05-05T15:04:36.805Z,38.78
2023-05-05T15:07:18.211Z,39.98
2023-05-05T15:09:46.067Z,40.47
2023-05-05T15:12:13.943Z,41.31
2023-05-05T15:14:42.501Z,39.17
2023-05-05T15:17:13.613Z,40.46
2023-05-05T15:19:41.779Z,40.40
2023-05-05T15:22:09.631Z,39.13
2023-05-05T15:24:37.462Z,38.40
2023-05-05T15:27:05.608Z,39.26
2023-05-05T15:29:33.567Z,38.65
2023-05-05T15:32:01.609Z,38.84
2023-05-05T15:34:29.549Z,40.40
2023-05-05T15:36:57.490Z,39.61
2023-05-05T15:39:25.494Z,40.45
2023-05-05T15:42:00.696Z,40.28
2023-05-05T15:44:28.605Z,39.83
2023-05-05T15:46:56.538Z,38.32
2023-05-05T15:49:27.559Z,38.20
2023-05-05T15:51:55.294Z,38.88
2023-05-05T15:54:23.082Z,38.39
2023-05-05T15:56:50.786Z,38.93
2023-05-05T15:59:19.206Z,39.44
2023-05-05T16:01:47.691Z,39.38
2023-05-05T16:04:54.050Z,39.07
2023-05-05T16:07:21.898Z,39.71
2023-05-05T16:09:49.758Z,39.55
2023-05-05T16:12:17.617Z,39.64
2023-05-05T16:14:45.473Z,40.31
2023-05-05T16:17:13.286Z,40.59
2023-05-05T16:19:41.164Z,38.89
2023-05-05T16:22:09.178Z,38.51
2023-05-05T16:24:37.456Z,40.46
2023-05-05T16:27:05.234Z,37.42
2023-05-05T16:29:33.156Z,37.41
2023-05-05T16:32:01.282Z,37.73
2023-05-05T16:34:29.174Z,37.94
2023-05-05T16:36:57.510Z,38.50
2023-05-05T16:39:26.338Z,37.73
2023-05-05T16:41:54.326Z,38.23
2023-05-05T16:44:22.133Z,37.09
2023-05-05T16:46:49.987Z,37.55
2023-05-05T16:49:18.492Z,38.01
2023-05-05T16:51:46.243Z,38.70
2023-05-05T16:54:14.128Z,39.35
2023-05-05T16:56:42.017Z,39.32
2023-05-05T16:59:09.786Z,39.69
2023-05-05T17:01:37.697Z,37.79
2023-05-05T17:04:06.752Z,37.64
2023-05-05T17:06:35.684Z,37.67
2023-05-05T17:09:03.576Z,37.70
2023-05-05T17:11:31.492Z,38.72
2023-05-05T17:13:59.356Z,39.10
2023-05-05T17:16:27.314Z,39.22
2023-05-05T17:18:55.182Z,40.05
2023-05-05T17:21:23.572Z,39.72
2023-05-05T17:23:51.457Z,40.03
2023-05-05T17:26:19.359Z,39.73
2023-05-05T17:28:47.277Z,40.81
2023-05-05T17:31:25.074Z,40.49
2023-05-05T17:33:53.050Z,39.98
2023-05-05T17:36:21.094Z,39.78
2023-05-05T17:38:48.920Z,39.85
2023-05-05T17:41:17.042Z,39.78
2023-05-05T17:43:44.926Z,39.58
2023-05-05T17:46:12.729Z,39.47
2023-05-05T17:48:40.815Z,39.45
2023-05-05T17:51:08.805Z,40.09
2023-05-05T17:53:36.661Z,39.86
2023-05-05T17:56:06.514Z,39.95
2023-05-05T17:58:36.077Z,40.08
2023-05-05T18:01:06.384Z,39.87
2023-05-05T18:03:39.211Z,39.71
2023-05-05T18:06:11.693Z,40.11
2023-05-05T18:08:39.824Z,41.44
2023-05-05T18:11:07.814Z,40.53
2023-05-05T18:13:35.764Z,41.13
2023-05-05T18:16:03.993Z,41.56
2023-05-05T18:18:37.892Z,41.01
2023-05-05T18:21:12.357Z,41.16
2023-05-05T18:23:40.637Z,41.63
2023-05-05T18:26:08.870Z,40.84
2023-05-05T18:28:40.333Z,41.46
2023-05-05T18:31:22.014Z,42.78
2023-05-05T18:33:52.896Z,41.67
2023-05-05T18:36:23.914Z,40.98
2023-05-05T18:38:52.190Z,41.44
2023-05-05T18:41:25.564Z,41.21
2023-05-05T18:43:53.571Z,41.27
2023-05-05T18:46:35.986Z,41.19
2023-05-05T18:49:14.415Z,41.24
2023-05-05T18:51:42.847Z,41.72
2023-05-05T18:54:10.929Z,42.08
2023-05-05T18:56:41.729Z,41.18
2023-05-05T18:59:25.098Z,41.52
2023-05-05T19:01:59.538Z,41.83
2023-05-05T19:04:44.083Z,43.49
2023-05-05T19:07:24.093Z,42.56
2023-05-05T19:10:02.223Z,42.08
2023-05-05T19:12:33.073Z,41.85
2023-05-05T19:15:05.075Z,41.42
2023-05-05T19:17:33.632Z,44.14
2023-05-05T19:20:01.650Z,43.79
2023-05-05T19:22:32.504Z,43.35
2023-05-05T19:25:04.000Z,43.49
2023-05-05T19:27:43.193Z,42.35
2023-05-05T19:30:11.845Z,41.40
2023-05-05T19:32:46.737Z,40.58
2023-05-05T19:35:24.355Z,40.12
2023-05-05T19:39:00.023Z,39.83
2023-05-05T19:41:37.096Z,39.90
2023-05-05T19:48:24.749Z,41.05
2023-05-05T19:51:08.587Z,42.87
2023-05-05T19:54:03.540Z,42.56
2023-05-05T19:57:45.111Z,42.80
2023-05-05T20:00:40.935Z,41.89
2023-05-05T20:03:10.089Z,42.05
2023-05-05T20:05:55.062Z,41.44
2023-05-05T20:08:52.303Z,42.46
2023-05-05T20:11:36.125Z,42.55
2023-05-05T20:14:15.921Z,42.47
2023-05-05T20:20:12.937Z,41.95
2023-05-05T20:22:45.345Z,42.52
2023-05-05T20:25:15.418Z,42.99
2023-05-05T20:27:44.521Z,42.63
2023-05-05T20:30:21.896Z,42.22
2023-05-05T20:32:58.403Z,43.32
2023-05-05T20:35:37.912Z,44.14
2023-05-05T20:38:09.829Z,42.88
2023-05-05T20:40:53.530Z,43.57
2023-05-05T20:43:32.086Z,42.93
2023-05-05T20:46:07.409Z,43.25
2023-05-05T20:48:44.645Z,43.02
2023-05-05T20:51:12.777Z,43.21
2023-05-05T20:53:43.750Z,43.54
2023-05-05T20:56:13.686Z,43.69
2023-05-05T20:58:41.554Z,44.84
2023-05-05T21:01:30.079Z,43.78
2023-05-05T21:03:58.209Z,44.38
2023-05-05T21:06:26.135Z,44.30
2023-05-05T21:08:53.898Z,44.34
2023-05-05T21:11:21.784Z,44.78
2023-05-05T21:13:58.514Z,44.06
2023-05-05T21:16:26.470Z,44.83
2023-05-05T21:18:54.430Z,44.63
2023-05-05T21:21:23.948Z,45.69
2023-05-05T21:23:51.885Z,45.22
2023-05-05T21:26:19.721Z,46.13
2023-05-05T21:28:47.527Z,45.86
2023-05-05T21:33:48.986Z,46.58
2023-05-05T21:36:17.813Z,45.91
2023-05-05T21:38:46.116Z,46.66
2023-05-05T21:41:29.807Z,45.61
2023-05-05T21:44:01.036Z,45.72
2023-05-05T21:46:29.178Z,46.70
2023-05-05T21:48:57.248Z,47.33
2023-05-05T21:51:25.441Z,46.66
2023-05-05T21:53:53.258Z,46.08
2023-05-05T21:56:21.053Z,46.50
2023-05-05T21:58:48.807Z,47.53
2023-05-05T22:01:16.547Z,47.56
2023-05-05T22:03:49.424Z,47.32
2023-05-05T22:06:17.538Z,48.31
2023-05-05T22:08:45.326Z,47.67
2023-05-05T22:11:13.237Z,48.22
2023-05-05T22:13:41.299Z,48.48
2023-05-05T22:16:09.958Z,48.24
2023-05-05T22:18:38.177Z,47.75
2023-05-05T22:21:06.263Z,49.42
2023-05-05T22:23:34.145Z,48.91
2023-05-05T22:26:02.072Z,49.09
2023-05-05T22:28:33.141Z,49.64
2023-05-05T22:31:01.219Z,49.58
2023-05-05T22:33:29.045Z,49.58
2023-05-05T22:35:57.574Z,49.49
2023-05-05T22:38:27.936Z,49.54
2023-05-05T22:40:55.761Z,50.07
2023-05-05T22:43:23.550Z,50.16
2023-05-05T22:45:51.416Z,50.41
2023-05-05T22:48:19.243Z,50.15
2023-05-05T22:50:47.189Z,50.64
2023-05-05T22:53:14.997Z,51.01
2023-05-05T22:55:42.733Z,50.02
2023-05-05T22:58:10.504Z,50.88
2023-05-05T23:00:38.318Z,51.27
2023-05-05T23:03:06.255Z,50.51
2023-05-05T23:05:34.758Z,50.92
2023-05-05T23:08:02.601Z,51.46
2023-05-05T23:10:30.833Z,51.10
2023-05-05T23:12:58.737Z,50.62
2023-05-05T23:15:26.675Z,50.72
2023-05-05T23:17:54.708Z,50.99
2023-05-05T23:20:22.662Z,51.54
2023-05-05T23:22:50.583Z,51.95
2023-05-05T23:25:18.758Z,51.65
2023-05-05T23:27:48.537Z,52.00
2023-05-05T23:30:16.724Z,52.37
2023-05-05T23:32:45.125Z,52.46
2023-05-05T23:35:13.230Z,52.51
2023-05-05T23:37:41.112Z,52.82
2023-05-05T23:40:09.395Z,52.54
2023-05-05T23:42:37.139Z,53.01
2023-05-05T23:45:05.197Z,52.79
2023-05-05T23:47:33.057Z,53.00
2023-05-05T23:50:01.031Z,53.92
2023-05-05T23:52:29.685Z,53.60
2023-05-05T23:54:57.501Z,53.92
2023-05-05T23:57:25.483Z,54.47
2023-05-05T23:59:53.320Z,54.89
